sensor_id;sensor_type;location;lat;lon;timestamp;P1;durP1;ratioP1;P2;durP2;ratioP2
31384;SDS011;18016;49.788;8.742;2022-10-16T00:00:12;2.87;;;1.17;;
31384;SDS011;18016;49.788;8.742;2022-10-16T00:02:38;2.70;;;0.80;;
31384;SDS011;18016;49.788;8.742;2022-10-16T00:05:03;0.60;;;0.57;;
31384;SDS011;18016;49.788;8.742;2022-10-16T00:07:28;0.82;;;0.82;;
31384;SDS011;18016;49.788;8.742;2022-10-16T00:09:53;0.87;;;0.60;;
31384;SDS011;18016;49.788;8.742;2022-10-16T00:12:19;1.00;;;0.60;;
31384;SDS011;18016;49.788;8.742;2022-10-16T00:14:44;1.40;;;0.70;;
31384;SDS011;18016;49.788;8.742;2022-10-16T00:17:09;3.00;;;0.80;;
31384;SDS011;18016;49.788;8.742;2022-10-16T00:19:35;2.40;;;0.90;;
31384;SDS011;18016;49.788;8.742;2022-10-16T00:22:00;3.00;;;0.80;;
31384;SDS011;18016;49.788;8.742;2022-10-16T00:24:25;0.70;;;0.70;;
31384;SDS011;18016;49.788;8.742;2022-10-16T00:26:50;2.05;;;0.70;;
31384;SDS011;18016;49.788;8.742;2022-10-16T00:29:16;2.17;;;0.77;;
31384;SDS011;18016;49.788;8.742;2022-10-16T00:31:41;1.50;;;0.80;;
31384;SDS011;18016;49.788;8.742;2022-10-16T00:34:06;0.97;;;0.83;;
31384;SDS011;18016;49.788;8.742;2022-10-16T00:36:31;0.80;;;0.80;;
31384;SDS011;18016;49.788;8.742;2022-10-16T00:38:57;0.85;;;0.85;;
31384;SDS011;18016;49.788;8.742;2022-10-16T00:41:26;2.22;;;0.90;;
31384;SDS011;18016;49.788;8.742;2022-10-16T00:43:55;2.78;;;0.95;;
31384;SDS011;18016;49.788;8.742;2022-10-16T00:46:22;2.20;;;0.70;;
31384;SDS011;18016;49.788;8.742;2022-10-16T00:51:23;1.90;;;0.60;;
31384;SDS011;18016;49.788;8.742;2022-10-16T00:53:49;1.45;;;0.60;;
31384;SDS011;18016;49.788;8.742;2022-10-16T00:56:14;0.60;;;0.60;;
31384;SDS011;18016;49.788;8.742;2022-10-16T00:58:40;1.90;;;0.73;;
31384;SDS011;18016;49.788;8.742;2022-10-16T01:01:05;0.60;;;0.60;;
31384;SDS011;18016;49.788;8.742;2022-10-16T01:03:32;2.27;;;0.70;;
31384;SDS011;18016;49.788;8.742;2022-10-16T01:09:21;3.50;;;0.80;;
31384;SDS011;18016;49.788;8.742;2022-10-16T01:13:55;2.15;;;0.68;;
31384;SDS011;18016;49.788;8.742;2022-10-16T01:16:26;1.65;;;0.55;;
31384;SDS011;18016;49.788;8.742;2022-10-16T01:18:56;2.10;;;0.85;;
31384;SDS011;18016;49.788;8.742;2022-10-16T01:21:24;0.88;;;0.63;;
31384;SDS011;18016;49.788;8.742;2022-10-16T01:29:06;3.55;;;0.70;;
31384;SDS011;18016;49.788;8.742;2022-10-16T01:31:34;0.93;;;0.80;;
31384;SDS011;18016;49.788;8.742;2022-10-16T01:34:01;2.75;;;0.90;;
31384;SDS011;18016;49.788;8.742;2022-10-16T01:36:37;1.98;;;0.80;;
31384;SDS011;18016;49.788;8.742;2022-10-16T01:41:47;2.08;;;0.60;;
31384;SDS011;18016;49.788;8.742;2022-10-16T01:44:15;3.27;;;0.93;;
31384;SDS011;18016;49.788;8.742;2022-10-16T01:46:43;2.25;;;1.20;;
31384;SDS011;18016;49.788;8.742;2022-10-16T01:49:08;1.90;;;1.60;;
31384;SDS011;18016;49.788;8.742;2022-10-16T01:51:34;5.32;;;1.77;;
31384;SDS011;18016;49.788;8.742;2022-10-16T01:54:00;2.63;;;1.98;;
31384;SDS011;18016;49.788;8.742;2022-10-16T01:56:26;4.05;;;2.10;;
31384;SDS011;18016;49.788;8.742;2022-10-16T01:58:53;2.63;;;2.42;;
31384;SDS011;18016;49.788;8.742;2022-10-16T02:01:20;3.47;;;2.75;;
31384;SDS011;18016;49.788;8.742;2022-10-16T02:03:47;8.75;;;3.22;;
31384;SDS011;18016;49.788;8.742;2022-10-16T02:06:14;5.40;;;4.38;;
31384;SDS011;18016;49.788;8.742;2022-10-16T02:08:39;11.37;;;4.57;;
31384;SDS011;18016;49.788;8.742;2022-10-16T02:11:08;7.18;;;5.18;;
31384;SDS011;18016;49.788;8.742;2022-10-16T02:13:35;7.70;;;5.40;;
31384;SDS011;18016;49.788;8.742;2022-10-16T02:16:02;6.50;;;5.78;;
31384;SDS011;18016;49.788;8.742;2022-10-16T02:18:27;7.38;;;6.45;;
31384;SDS011;18016;49.788;8.742;2022-10-16T02:21:03;8.32;;;7.35;;
31384;SDS011;18016;49.788;8.742;2022-10-16T02:23:36;8.95;;;8.05;;
31384;SDS011;18016;49.788;8.742;2022-10-16T02:26:04;12.52;;;9.52;;
31384;SDS011;18016;49.788;8.742;2022-10-16T02:28:34;10.75;;;9.57;;
31384;SDS011;18016;49.788;8.742;2022-10-16T02:31:03;12.73;;;10.30;;
31384;SDS011;18016;49.788;8.742;2022-10-16T02:33:29;12.90;;;11.00;;
31384;SDS011;18016;49.788;8.742;2022-10-16T02:35:56;14.43;;;11.95;;
31384;SDS011;18016;49.788;8.742;2022-10-16T02:38:22;15.25;;;12.07;;
31384;SDS011;18016;49.788;8.742;2022-10-16T02:40:47;16.95;;;11.45;;
31384;SDS011;18016;49.788;8.742;2022-10-16T02:43:13;16.52;;;11.55;;
31384;SDS011;18016;49.788;8.742;2022-10-16T02:45:38;15.95;;;11.80;;
31384;SDS011;18016;49.788;8.742;2022-10-16T02:48:04;17.63;;;13.05;;
31384;SDS011;18016;49.788;8.742;2022-10-16T02:50:29;18.15;;;12.30;;
31384;SDS011;18016;49.788;8.742;2022-10-16T02:52:55;16.73;;;12.40;;
31384;SDS011;18016;49.788;8.742;2022-10-16T02:55:20;16.90;;;12.47;;
31384;SDS011;18016;49.788;8.742;2022-10-16T02:57:45;15.43;;;13.13;;
31384;SDS011;18016;49.788;8.742;2022-10-16T03:00:12;16.88;;;11.85;;
31384;SDS011;18016;49.788;8.742;2022-10-16T03:02:37;13.35;;;10.60;;
31384;SDS011;18016;49.788;8.742;2022-10-16T03:05:02;10.43;;;9.33;;
31384;SDS011;18016;49.788;8.742;2022-10-16T03:07:28;10.77;;;8.27;;
31384;SDS011;18016;49.788;8.742;2022-10-16T03:09:53;12.15;;;8.93;;
31384;SDS011;18016;49.788;8.742;2022-10-16T03:12:19;8.77;;;7.88;;
31384;SDS011;18016;49.788;8.742;2022-10-16T03:14:44;9.30;;;6.55;;
31384;SDS011;18016;49.788;8.742;2022-10-16T03:17:10;10.82;;;5.85;;
31384;SDS011;18016;49.788;8.742;2022-10-16T03:19:35;6.22;;;5.38;;
31384;SDS011;18016;49.788;8.742;2022-10-16T03:22:01;6.25;;;3.95;;
31384;SDS011;18016;49.788;8.742;2022-10-16T03:24:26;4.43;;;3.58;;
31384;SDS011;18016;49.788;8.742;2022-10-16T03:26:51;2.80;;;2.20;;
31384;SDS011;18016;49.788;8.742;2022-10-16T03:29:16;3.53;;;2.10;;
31384;SDS011;18016;49.788;8.742;2022-10-16T03:31:41;4.70;;;2.33;;
31384;SDS011;18016;49.788;8.742;2022-10-16T03:34:07;4.05;;;2.50;;
31384;SDS011;18016;49.788;8.742;2022-10-16T03:36:32;3.50;;;2.40;;
31384;SDS011;18016;49.788;8.742;2022-10-16T03:38:57;2.87;;;2.10;;
31384;SDS011;18016;49.788;8.742;2022-10-16T03:41:22;4.80;;;2.30;;
31384;SDS011;18016;49.788;8.742;2022-10-16T03:43:47;2.90;;;2.20;;
31384;SDS011;18016;49.788;8.742;2022-10-16T03:46:13;3.30;;;2.00;;
31384;SDS011;18016;49.788;8.742;2022-10-16T03:48:38;7.05;;;2.30;;
31384;SDS011;18016;49.788;8.742;2022-10-16T03:51:04;5.07;;;1.92;;
31384;SDS011;18016;49.788;8.742;2022-10-16T03:53:30;7.97;;;1.60;;
31384;SDS011;18016;49.788;8.742;2022-10-16T03:55:55;3.17;;;1.80;;
31384;SDS011;18016;49.788;8.742;2022-10-16T03:58:20;3.70;;;1.20;;
31384;SDS011;18016;49.788;8.742;2022-10-16T04:00:45;3.33;;;1.47;;
31384;SDS011;18016;49.788;8.742;2022-10-16T04:03:12;3.05;;;1.45;;
31384;SDS011;18016;49.788;8.742;2022-10-16T04:05:37;2.95;;;1.23;;
31384;SDS011;18016;49.788;8.742;2022-10-16T04:08:02;5.47;;;1.50;;
31384;SDS011;18016;49.788;8.742;2022-10-16T04:10:28;3.87;;;1.30;;
31384;SDS011;18016;49.788;8.742;2022-10-16T04:12:53;4.23;;;1.27;;
31384;SDS011;18016;49.788;8.742;2022-10-16T04:15:21;1.60;;;1.38;;
31384;SDS011;18016;49.788;8.742;2022-10-16T04:17:46;4.18;;;1.48;;
31384;SDS011;18016;49.788;8.742;2022-10-16T04:20:11;7.18;;;1.80;;
31384;SDS011;18016;49.788;8.742;2022-10-16T04:22:37;6.40;;;2.03;;
31384;SDS011;18016;49.788;8.742;2022-10-16T04:25:02;14.70;;;2.27;;
31384;SDS011;18016;49.788;8.742;2022-10-16T04:27:27;8.45;;;2.08;;
31384;SDS011;18016;49.788;8.742;2022-10-16T04:29:53;5.20;;;2.03;;
31384;SDS011;18016;49.788;8.742;2022-10-16T04:32:18;8.30;;;2.13;;
31384;SDS011;18016;49.788;8.742;2022-10-16T04:34:43;2.50;;;1.80;;
31384;SDS011;18016;49.788;8.742;2022-10-16T04:37:09;3.50;;;2.13;;
31384;SDS011;18016;49.788;8.742;2022-10-16T04:39:34;5.63;;;2.30;;
31384;SDS011;18016;49.788;8.742;2022-10-16T04:41:59;14.57;;;2.45;;
31384;SDS011;18016;49.788;8.742;2022-10-16T04:44:24;13.13;;;2.53;;
31384;SDS011;18016;49.788;8.742;2022-10-16T04:46:50;4.40;;;2.17;;
31384;SDS011;18016;49.788;8.742;2022-10-16T04:49:15;4.60;;;2.60;;
31384;SDS011;18016;49.788;8.742;2022-10-16T04:51:40;5.70;;;2.37;;
31384;SDS011;18016;49.788;8.742;2022-10-16T04:54:06;4.13;;;2.60;;
31384;SDS011;18016;49.788;8.742;2022-10-16T04:56:31;6.03;;;2.33;;
31384;SDS011;18016;49.788;8.742;2022-10-16T04:58:56;11.90;;;2.40;;
31384;SDS011;18016;49.788;8.742;2022-10-16T05:01:21;7.03;;;2.23;;
31384;SDS011;18016;49.788;8.742;2022-10-16T05:03:46;9.23;;;2.70;;
31384;SDS011;18016;49.788;8.742;2022-10-16T05:06:11;5.53;;;2.50;;
31384;SDS011;18016;49.788;8.742;2022-10-16T05:08:37;7.30;;;2.20;;
31384;SDS011;18016;49.788;8.742;2022-10-16T05:11:02;4.97;;;2.47;;
31384;SDS011;18016;49.788;8.742;2022-10-16T05:13:27;7.13;;;2.17;;
31384;SDS011;18016;49.788;8.742;2022-10-16T05:15:52;6.27;;;2.33;;
31384;SDS011;18016;49.788;8.742;2022-10-16T05:18:17;7.30;;;2.37;;
31384;SDS011;18016;49.788;8.742;2022-10-16T05:20:43;7.23;;;2.33;;
31384;SDS011;18016;49.788;8.742;2022-10-16T05:23:08;2.80;;;2.27;;
31384;SDS011;18016;49.788;8.742;2022-10-16T05:25:35;6.00;;;2.40;;
31384;SDS011;18016;49.788;8.742;2022-10-16T05:28:00;7.72;;;2.22;;
31384;SDS011;18016;49.788;8.742;2022-10-16T05:30:25;2.97;;;2.07;;
31384;SDS011;18016;49.788;8.742;2022-10-16T05:32:51;4.53;;;2.23;;
31384;SDS011;18016;49.788;8.742;2022-10-16T05:35:17;4.53;;;2.15;;
31384;SDS011;18016;49.788;8.742;2022-10-16T05:37:42;3.60;;;1.88;;
31384;SDS011;18016;49.788;8.742;2022-10-16T05:40:08;5.57;;;2.25;;
31384;SDS011;18016;49.788;8.742;2022-10-16T05:42:33;7.22;;;2.25;;
31384;SDS011;18016;49.788;8.742;2022-10-16T05:44:58;4.00;;;2.13;;
31384;SDS011;18016;49.788;8.742;2022-10-16T05:47:24;9.13;;;2.05;;
31384;SDS011;18016;49.788;8.742;2022-10-16T05:49:49;3.70;;;2.10;;
31384;SDS011;18016;49.788;8.742;2022-10-16T05:52:14;4.33;;;2.20;;
31384;SDS011;18016;49.788;8.742;2022-10-16T05:54:39;5.30;;;2.10;;
31384;SDS011;18016;49.788;8.742;2022-10-16T05:57:05;4.20;;;2.00;;
31384;SDS011;18016;49.788;8.742;2022-10-16T05:59:30;4.72;;;2.30;;
31384;SDS011;18016;49.788;8.742;2022-10-16T06:01:56;19.20;;;2.75;;
31384;SDS011;18016;49.788;8.742;2022-10-16T06:04:21;12.27;;;8.07;;
31384;SDS011;18016;49.788;8.742;2022-10-16T06:06:46;44.03;;;30.57;;
31384;SDS011;18016;49.788;8.742;2022-10-16T06:09:11;12.67;;;4.67;;
31384;SDS011;18016;49.788;8.742;2022-10-16T06:11:37;40.97;;;33.75;;
31384;SDS011;18016;49.788;8.742;2022-10-16T06:14:02;59.53;;;47.27;;
31384;SDS011;18016;49.788;8.742;2022-10-16T06:16:31;18.67;;;11.23;;
31384;SDS011;18016;49.788;8.742;2022-10-16T06:18:56;17.08;;;5.50;;
31384;SDS011;18016;49.788;8.742;2022-10-16T06:21:24;6.47;;;2.67;;
31384;SDS011;18016;49.788;8.742;2022-10-16T06:23:49;10.43;;;8.27;;
31384;SDS011;18016;49.788;8.742;2022-10-16T06:26:16;10.53;;;3.03;;
31384;SDS011;18016;49.788;8.742;2022-10-16T06:28:41;11.10;;;4.95;;
31384;SDS011;18016;49.788;8.742;2022-10-16T06:31:07;10.55;;;3.90;;
31384;SDS011;18016;49.788;8.742;2022-10-16T06:33:33;7.40;;;3.42;;
31384;SDS011;18016;49.788;8.742;2022-10-16T06:36:02;10.82;;;3.90;;
31384;SDS011;18016;49.788;8.742;2022-10-16T06:38:28;12.52;;;3.03;;
31384;SDS011;18016;49.788;8.742;2022-10-16T06:40:54;7.50;;;2.97;;
31384;SDS011;18016;49.788;8.742;2022-10-16T06:43:19;8.77;;;2.50;;
31384;SDS011;18016;49.788;8.742;2022-10-16T06:45:50;10.23;;;2.40;;
31384;SDS011;18016;49.788;8.742;2022-10-16T06:48:15;7.22;;;2.90;;
31384;SDS011;18016;49.788;8.742;2022-10-16T06:50:40;9.10;;;2.40;;
31384;SDS011;18016;49.788;8.742;2022-10-16T06:53:05;6.03;;;2.33;;
31384;SDS011;18016;49.788;8.742;2022-10-16T06:55:30;4.43;;;2.30;;
31384;SDS011;18016;49.788;8.742;2022-10-16T06:57:55;8.03;;;2.63;;
31384;SDS011;18016;49.788;8.742;2022-10-16T07:00:21;5.03;;;2.50;;
31384;SDS011;18016;49.788;8.742;2022-10-16T07:02:46;4.77;;;2.30;;
31384;SDS011;18016;49.788;8.742;2022-10-16T07:05:11;5.60;;;2.60;;
31384;SDS011;18016;49.788;8.742;2022-10-16T07:07:36;6.10;;;2.50;;
31384;SDS011;18016;49.788;8.742;2022-10-16T07:10:01;8.23;;;2.70;;
31384;SDS011;18016;49.788;8.742;2022-10-16T07:12:27;9.95;;;2.35;;
31384;SDS011;18016;49.788;8.742;2022-10-16T07:14:52;5.95;;;3.20;;
31384;SDS011;18016;49.788;8.742;2022-10-16T07:17:19;7.50;;;2.67;;
31384;SDS011;18016;49.788;8.742;2022-10-16T07:19:44;8.13;;;2.30;;
31384;SDS011;18016;49.788;8.742;2022-10-16T07:22:09;7.97;;;2.35;;
31384;SDS011;18016;49.788;8.742;2022-10-16T07:24:35;5.67;;;2.00;;
31384;SDS011;18016;49.788;8.742;2022-10-16T07:27:00;8.13;;;2.65;;
31384;SDS011;18016;49.788;8.742;2022-10-16T07:29:25;3.05;;;2.20;;
31384;SDS011;18016;49.788;8.742;2022-10-16T07:31:50;8.98;;;2.53;;
31384;SDS011;18016;49.788;8.742;2022-10-16T07:34:17;3.67;;;2.60;;
31384;SDS011;18016;49.788;8.742;2022-10-16T07:36:42;6.07;;;2.63;;
31384;SDS011;18016;49.788;8.742;2022-10-16T07:39:08;7.43;;;3.17;;
31384;SDS011;18016;49.788;8.742;2022-10-16T07:41:33;11.85;;;3.17;;
31384;SDS011;18016;49.788;8.742;2022-10-16T07:44:01;7.68;;;2.95;;
31384;SDS011;18016;49.788;8.742;2022-10-16T07:46:27;4.57;;;2.78;;
31384;SDS011;18016;49.788;8.742;2022-10-16T07:48:52;4.78;;;2.10;;
31384;SDS011;18016;49.788;8.742;2022-10-16T07:51:18;5.35;;;2.33;;
31384;SDS011;18016;49.788;8.742;2022-10-16T07:53:44;5.38;;;2.10;;
31384;SDS011;18016;49.788;8.742;2022-10-16T07:56:09;5.83;;;2.83;;
31384;SDS011;18016;49.788;8.742;2022-10-16T07:58:35;4.90;;;2.00;;
31384;SDS011;18016;49.788;8.742;2022-10-16T08:01:03;3.55;;;1.77;;
31384;SDS011;18016;49.788;8.742;2022-10-16T08:03:29;7.35;;;2.08;;
31384;SDS011;18016;49.788;8.742;2022-10-16T08:05:54;5.90;;;2.10;;
31384;SDS011;18016;49.788;8.742;2022-10-16T08:08:21;7.60;;;2.38;;
31384;SDS011;18016;49.788;8.742;2022-10-16T08:10:46;5.37;;;2.50;;
31384;SDS011;18016;49.788;8.742;2022-10-16T08:13:12;7.60;;;2.10;;
31384;SDS011;18016;49.788;8.742;2022-10-16T08:15:39;7.13;;;2.08;;
31384;SDS011;18016;49.788;8.742;2022-10-16T08:18:05;4.10;;;2.30;;
31384;SDS011;18016;49.788;8.742;2022-10-16T08:20:30;5.72;;;2.28;;
31384;SDS011;18016;49.788;8.742;2022-10-16T08:22:56;3.70;;;1.75;;
31384;SDS011;18016;49.788;8.742;2022-10-16T08:25:21;3.20;;;1.90;;
31384;SDS011;18016;49.788;8.742;2022-10-16T08:27:47;7.57;;;2.33;;
31384;SDS011;18016;49.788;8.742;2022-10-16T08:30:12;3.75;;;1.70;;
31384;SDS011;18016;49.788;8.742;2022-10-16T08:32:37;3.17;;;1.90;;
31384;SDS011;18016;49.788;8.742;2022-10-16T08:35:03;8.25;;;2.10;;
31384;SDS011;18016;49.788;8.742;2022-10-16T08:37:31;6.10;;;1.70;;
31384;SDS011;18016;49.788;8.742;2022-10-16T08:39:57;5.90;;;1.92;;
31384;SDS011;18016;49.788;8.742;2022-10-16T08:42:27;3.28;;;1.67;;
31384;SDS011;18016;49.788;8.742;2022-10-16T08:45:05;4.53;;;1.70;;
31384;SDS011;18016;49.788;8.742;2022-10-16T08:50:21;6.15;;;1.88;;
31384;SDS011;18016;49.788;8.742;2022-10-16T08:52:47;8.32;;;1.75;;
31384;SDS011;18016;49.788;8.742;2022-10-16T08:55:29;4.60;;;2.13;;
31384;SDS011;18016;49.788;8.742;2022-10-16T08:57:55;2.78;;;1.70;;
31384;SDS011;18016;49.788;8.742;2022-10-16T09:00:20;2.77;;;2.07;;
31384;SDS011;18016;49.788;8.742;2022-10-16T09:02:53;8.05;;;2.50;;
31384;SDS011;18016;49.788;8.742;2022-10-16T09:05:43;4.97;;;2.80;;
31384;SDS011;18016;49.788;8.742;2022-10-16T09:08:18;6.57;;;3.40;;
31384;SDS011;18016;49.788;8.742;2022-10-16T09:10:57;5.75;;;2.67;;
31384;SDS011;18016;49.788;8.742;2022-10-16T09:18:29;4.15;;;2.67;;
31384;SDS011;18016;49.788;8.742;2022-10-16T09:21:06;5.13;;;3.70;;
31384;SDS011;18016;49.788;8.742;2022-10-16T09:23:34;2.08;;;1.90;;
31384;SDS011;18016;49.788;8.742;2022-10-16T09:26:00;3.78;;;1.77;;
31384;SDS011;18016;49.788;8.742;2022-10-16T09:28:26;4.03;;;2.20;;
31384;SDS011;18016;49.788;8.742;2022-10-16T09:30:51;5.27;;;2.57;;
31384;SDS011;18016;49.788;8.742;2022-10-16T09:33:20;5.25;;;2.45;;
31384;SDS011;18016;49.788;8.742;2022-10-16T09:35:48;2.67;;;2.03;;
31384;SDS011;18016;49.788;8.742;2022-10-16T09:38:27;5.55;;;2.60;;
31384;SDS011;18016;49.788;8.742;2022-10-16T09:40:53;3.20;;;2.45;;
31384;SDS011;18016;49.788;8.742;2022-10-16T09:45:52;5.28;;;2.25;;
31384;SDS011;18016;49.788;8.742;2022-10-16T09:48:17;3.60;;;2.45;;
31384;SDS011;18016;49.788;8.742;2022-10-16T09:50:54;3.00;;;2.17;;
31384;SDS011;18016;49.788;8.742;2022-10-16T09:53:19;2.40;;;1.95;;
31384;SDS011;18016;49.788;8.742;2022-10-16T09:55:48;2.72;;;1.70;;
31384;SDS011;18016;49.788;8.742;2022-10-16T09:58:13;2.45;;;1.55;;
31384;SDS011;18016;49.788;8.742;2022-10-16T10:00:39;4.90;;;1.57;;
31384;SDS011;18016;49.788;8.742;2022-10-16T10:03:09;4.75;;;1.70;;
31384;SDS011;18016;49.788;8.742;2022-10-16T10:05:34;2.88;;;1.90;;
31384;SDS011;18016;49.788;8.742;2022-10-16T10:08:02;2.90;;;1.93;;
31384;SDS011;18016;49.788;8.742;2022-10-16T10:10:32;6.93;;;2.25;;
31384;SDS011;18016;49.788;8.742;2022-10-16T10:12:57;3.05;;;2.20;;
31384;SDS011;18016;49.788;8.742;2022-10-16T10:15:23;6.85;;;2.28;;
31384;SDS011;18016;49.788;8.742;2022-10-16T10:17:53;4.20;;;1.75;;
31384;SDS011;18016;49.788;8.742;2022-10-16T10:20:26;2.08;;;1.70;;
31384;SDS011;18016;49.788;8.742;2022-10-16T10:22:53;3.05;;;1.58;;
31384;SDS011;18016;49.788;8.742;2022-10-16T10:30:39;1.75;;;1.38;;
31384;SDS011;18016;49.788;8.742;2022-10-16T10:38:29;3.67;;;1.55;;
31384;SDS011;18016;49.788;8.742;2022-10-16T10:43:45;1.85;;;1.60;;
31384;SDS011;18016;49.788;8.742;2022-10-16T10:46:08;2.38;;;1.65;;
31384;SDS011;18016;49.788;8.742;2022-10-16T10:51:01;6.60;;;1.83;;
31384;SDS011;18016;49.788;8.742;2022-10-16T10:55:57;2.73;;;1.50;;
31384;SDS011;18016;49.788;8.742;2022-10-16T11:06:17;2.45;;;1.50;;
31384;SDS011;18016;49.788;8.742;2022-10-16T11:08:48;2.67;;;1.40;;
31384;SDS011;18016;49.788;8.742;2022-10-16T11:11:36;7.97;;;1.65;;
31384;SDS011;18016;49.788;8.742;2022-10-16T11:14:20;5.57;;;1.58;;
31384;SDS011;18016;49.788;8.742;2022-10-16T11:16:54;3.22;;;1.40;;
31384;SDS011;18016;49.788;8.742;2022-10-16T11:19:39;3.38;;;1.60;;
31384;SDS011;18016;49.788;8.742;2022-10-16T11:26:59;1.67;;;1.58;;
31384;SDS011;18016;49.788;8.742;2022-10-16T11:29:29;2.22;;;1.60;;
31384;SDS011;18016;49.788;8.742;2022-10-16T11:32:06;8.05;;;1.60;;
31384;SDS011;18016;49.788;8.742;2022-10-16T11:34:47;3.95;;;1.60;;
31384;SDS011;18016;49.788;8.742;2022-10-16T11:37:17;2.83;;;1.75;;
31384;SDS011;18016;49.788;8.742;2022-10-16T11:39:43;3.50;;;1.50;;
31384;SDS011;18016;49.788;8.742;2022-10-16T11:42:30;1.67;;;1.45;;
31384;SDS011;18016;49.788;8.742;2022-10-16T11:47:34;8.82;;;2.03;;
31384;SDS011;18016;49.788;8.742;2022-10-16T11:50:06;4.80;;;1.73;;
31384;SDS011;18016;49.788;8.742;2022-10-16T11:53:09;3.10;;;1.60;;
31384;SDS011;18016;49.788;8.742;2022-10-16T11:55:31;2.15;;;1.77;;
31384;SDS011;18016;49.788;8.742;2022-10-16T11:58:02;5.40;;;1.63;;
31384;SDS011;18016;49.788;8.742;2022-10-16T12:00:46;2.08;;;1.58;;
31384;SDS011;18016;49.788;8.742;2022-10-16T12:08:12;3.57;;;1.87;;
31384;SDS011;18016;49.788;8.742;2022-10-16T12:10:38;2.40;;;1.55;;
31384;SDS011;18016;49.788;8.742;2022-10-16T12:13:04;1.92;;;1.65;;
31384;SDS011;18016;49.788;8.742;2022-10-16T12:15:30;2.53;;;1.77;;
31384;SDS011;18016;49.788;8.742;2022-10-16T12:17:56;2.78;;;1.75;;
31384;SDS011;18016;49.788;8.742;2022-10-16T12:20:29;5.43;;;1.88;;
31384;SDS011;18016;49.788;8.742;2022-10-16T12:22:56;3.78;;;1.90;;
31384;SDS011;18016;49.788;8.742;2022-10-16T12:25:24;6.22;;;1.65;;
31384;SDS011;18016;49.788;8.742;2022-10-16T12:27:56;6.18;;;1.90;;
31384;SDS011;18016;49.788;8.742;2022-10-16T12:30:23;3.30;;;1.90;;
31384;SDS011;18016;49.788;8.742;2022-10-16T12:32:52;5.30;;;2.00;;
31384;SDS011;18016;49.788;8.742;2022-10-16T12:35:29;5.22;;;1.77;;
31384;SDS011;18016;49.788;8.742;2022-10-16T12:38:04;2.47;;;1.80;;
31384;SDS011;18016;49.788;8.742;2022-10-16T12:40:31;2.75;;;1.80;;
31384;SDS011;18016;49.788;8.742;2022-10-16T12:42:57;4.35;;;1.92;;
31384;SDS011;18016;49.788;8.742;2022-10-16T12:45:27;9.18;;;1.95;;
31384;SDS011;18016;49.788;8.742;2022-10-16T12:47:52;7.63;;;2.00;;
31384;SDS011;18016;49.788;8.742;2022-10-16T12:50:38;1.95;;;1.70;;
31384;SDS011;18016;49.788;8.742;2022-10-16T12:53:15;3.45;;;1.60;;
31384;SDS011;18016;49.788;8.742;2022-10-16T12:55:43;11.10;;;8.70;;
31384;SDS011;18016;49.788;8.742;2022-10-16T12:58:24;3.38;;;2.30;;
31384;SDS011;18016;49.788;8.742;2022-10-16T13:01:01;4.05;;;2.15;;
31384;SDS011;18016;49.788;8.742;2022-10-16T13:03:36;2.67;;;1.85;;
31384;SDS011;18016;49.788;8.742;2022-10-16T13:06:22;5.63;;;1.92;;
31384;SDS011;18016;49.788;8.742;2022-10-16T13:14:14;4.47;;;2.17;;
31384;SDS011;18016;49.788;8.742;2022-10-16T13:16:55;9.05;;;3.03;;
31384;SDS011;18016;49.788;8.742;2022-10-16T13:24:20;4.80;;;2.47;;
31384;SDS011;18016;49.788;8.742;2022-10-16T13:27:05;2.63;;;2.42;;
31384;SDS011;18016;49.788;8.742;2022-10-16T13:29:33;7.47;;;3.03;;
31384;SDS011;18016;49.788;8.742;2022-10-16T13:31:59;5.88;;;2.83;;
31384;SDS011;18016;49.788;8.742;2022-10-16T13:34:25;6.90;;;3.35;;
31384;SDS011;18016;49.788;8.742;2022-10-16T13:36:52;6.15;;;3.40;;
31384;SDS011;18016;49.788;8.742;2022-10-16T13:39:24;9.57;;;3.40;;
31384;SDS011;18016;49.788;8.742;2022-10-16T13:42:06;8.00;;;3.83;;
31384;SDS011;18016;49.788;8.742;2022-10-16T13:44:36;8.18;;;2.90;;
31384;SDS011;18016;49.788;8.742;2022-10-16T13:47:02;2.38;;;2.17;;
31384;SDS011;18016;49.788;8.742;2022-10-16T13:49:27;7.53;;;2.88;;
31384;SDS011;18016;49.788;8.742;2022-10-16T13:51:56;8.38;;;2.47;;
31384;SDS011;18016;49.788;8.742;2022-10-16T13:54:22;5.15;;;2.40;;
31384;SDS011;18016;49.788;8.742;2022-10-16T13:56:48;2.95;;;2.42;;
31384;SDS011;18016;49.788;8.742;2022-10-16T14:01:47;4.60;;;2.50;;
31384;SDS011;18016;49.788;8.742;2022-10-16T14:04:12;4.53;;;2.97;;
31384;SDS011;18016;49.788;8.742;2022-10-16T14:06:43;10.10;;;4.47;;
31384;SDS011;18016;49.788;8.742;2022-10-16T14:09:14;7.97;;;4.18;;
31384;SDS011;18016;49.788;8.742;2022-10-16T14:11:48;8.02;;;3.35;;
31384;SDS011;18016;49.788;8.742;2022-10-16T14:14:13;10.63;;;3.30;;
31384;SDS011;18016;49.788;8.742;2022-10-16T14:16:39;12.00;;;3.33;;
31384;SDS011;18016;49.788;8.742;2022-10-16T14:19:05;16.60;;;3.50;;
31384;SDS011;18016;49.788;8.742;2022-10-16T14:21:32;8.48;;;2.70;;
31384;SDS011;18016;49.788;8.742;2022-10-16T14:23:57;15.27;;;2.80;;
31384;SDS011;18016;49.788;8.742;2022-10-16T14:26:23;11.50;;;2.95;;
31384;SDS011;18016;49.788;8.742;2022-10-16T14:29:00;8.05;;;2.60;;
31384;SDS011;18016;49.788;8.742;2022-10-16T14:31:28;10.20;;;2.80;;
31384;SDS011;18016;49.788;8.742;2022-10-16T14:33:54;15.88;;;3.22;;
31384;SDS011;18016;49.788;8.742;2022-10-16T14:36:19;6.88;;;2.50;;
31384;SDS011;18016;49.788;8.742;2022-10-16T14:39:05;15.48;;;2.90;;
31384;SDS011;18016;49.788;8.742;2022-10-16T14:41:31;11.52;;;3.10;;
31384;SDS011;18016;49.788;8.742;2022-10-16T14:43:57;6.88;;;2.95;;
31384;SDS011;18016;49.788;8.742;2022-10-16T14:46:33;7.28;;;2.88;;
31384;SDS011;18016;49.788;8.742;2022-10-16T14:49:20;11.13;;;2.83;;
31384;SDS011;18016;49.788;8.742;2022-10-16T14:51:45;14.90;;;2.95;;
31384;SDS011;18016;49.788;8.742;2022-10-16T14:54:14;7.72;;;2.42;;
31384;SDS011;18016;49.788;8.742;2022-10-16T14:56:47;10.02;;;2.50;;
31384;SDS011;18016;49.788;8.742;2022-10-16T14:59:14;7.88;;;2.78;;
31384;SDS011;18016;49.788;8.742;2022-10-16T15:01:42;7.95;;;3.33;;
31384;SDS011;18016;49.788;8.742;2022-10-16T15:04:08;11.55;;;3.80;;
31384;SDS011;18016;49.788;8.742;2022-10-16T15:06:34;10.52;;;3.83;;
31384;SDS011;18016;49.788;8.742;2022-10-16T15:08:59;9.13;;;3.33;;
31384;SDS011;18016;49.788;8.742;2022-10-16T15:11:24;12.23;;;4.03;;
31384;SDS011;18016;49.788;8.742;2022-10-16T15:13:49;7.53;;;3.50;;
31384;SDS011;18016;49.788;8.742;2022-10-16T15:16:15;11.47;;;2.97;;
31384;SDS011;18016;49.788;8.742;2022-10-16T15:18:40;11.68;;;3.42;;
31384;SDS011;18016;49.788;8.742;2022-10-16T15:21:05;5.70;;;2.60;;
31384;SDS011;18016;49.788;8.742;2022-10-16T15:23:31;13.23;;;3.03;;
31384;SDS011;18016;49.788;8.742;2022-10-16T15:25:56;5.47;;;2.70;;
31384;SDS011;18016;49.788;8.742;2022-10-16T15:28:22;19.75;;;3.55;;
31384;SDS011;18016;49.788;8.742;2022-10-16T15:30:51;7.60;;;3.00;;
31384;SDS011;18016;49.788;8.742;2022-10-16T15:33:18;6.63;;;3.22;;
31384;SDS011;18016;49.788;8.742;2022-10-16T15:35:46;10.10;;;3.00;;
31384;SDS011;18016;49.788;8.742;2022-10-16T15:38:12;11.60;;;3.40;;
31384;SDS011;18016;49.788;8.742;2022-10-16T15:40:37;14.63;;;9.30;;
31384;SDS011;18016;49.788;8.742;2022-10-16T15:43:02;23.70;;;10.00;;
31384;SDS011;18016;49.788;8.742;2022-10-16T15:45:28;22.80;;;16.63;;
31384;SDS011;18016;49.788;8.742;2022-10-16T15:47:53;33.87;;;16.37;;
31384;SDS011;18016;49.788;8.742;2022-10-16T15:50:18;32.00;;;13.00;;
31384;SDS011;18016;49.788;8.742;2022-10-16T15:52:43;15.13;;;5.33;;
31384;SDS011;18016;49.788;8.742;2022-10-16T15:55:09;13.98;;;5.57;;
31384;SDS011;18016;49.788;8.742;2022-10-16T15:57:35;14.18;;;4.80;;
31384;SDS011;18016;49.788;8.742;2022-10-16T16:00:03;15.20;;;5.07;;
31384;SDS011;18016;49.788;8.742;2022-10-16T16:02:28;16.73;;;3.78;;